sensor_id;sensor_type;location;lat;lon;timestamp;P1;durP1;ratioP1;P2;durP2;ratioP2
29902;SDS011;30288;50.514;9.678;2023-04-06T00:01:54;15.52;;;7.78;;
29902;SDS011;30288;50.514;9.678;2023-04-06T00:04:02;16.85;;;7.68;;
29902;SDS011;30288;50.514;9.678;2023-04-06T00:06:07;15.77;;;7.50;;
29902;SDS011;30288;50.514;9.678;2023-04-06T00:08:12;16.77;;;7.63;;
29902;SDS011;30288;50.514;9.678;2023-04-06T00:10:18;16.00;;;7.88;;
29902;SDS011;30288;50.514;9.678;2023-04-06T00:12:23;16.98;;;7.95;;
29902;SDS011;30288;50.514;9.678;2023-04-06T00:14:28;16.13;;;7.97;;
29902;SDS011;30288;50.514;9.678;2023-04-06T00:16:33;16.20;;;8.07;;
29902;SDS011;30288;50.514;9.678;2023-04-06T00:18:38;20.13;;;8.20;;
29902;SDS011;30288;50.514;9.678;2023-04-06T00:20:46;15.32;;;7.40;;
29902;SDS011;30288;50.514;9.678;2023-04-06T00:22:52;20.45;;;9.13;;
29902;SDS011;30288;50.514;9.678;2023-04-06T00:24:57;15.18;;;7.85;;
29902;SDS011;30288;50.514;9.678;2023-04-06T00:27:03;16.40;;;7.47;;
29902;SDS011;30288;50.514;9.678;2023-04-06T00:29:08;14.98;;;7.97;;
29902;SDS011;30288;50.514;9.678;2023-04-06T00:31:13;15.95;;;7.82;;
29902;SDS011;30288;50.514;9.678;2023-04-06T00:33:18;16.70;;;7.63;;
29902;SDS011;30288;50.514;9.678;2023-04-06T00:35:23;19.13;;;11.18;;
29902;SDS011;30288;50.514;9.678;2023-04-06T00:37:31;13.75;;;7.28;;
29902;SDS011;30288;50.514;9.678;2023-04-06T00:39:36;14.18;;;7.68;;
29902;SDS011;30288;50.514;9.678;2023-04-06T00:41:42;16.33;;;7.93;;
29902;SDS011;30288;50.514;9.678;2023-04-06T00:43:56;17.02;;;7.53;;
29902;SDS011;30288;50.514;9.678;2023-04-06T00:46:01;17.23;;;9.13;;
29902;SDS011;30288;50.514;9.678;2023-04-06T00:48:06;14.38;;;7.60;;
29902;SDS011;30288;50.514;9.678;2023-04-06T00:50:12;19.52;;;7.95;;
29902;SDS011;30288;50.514;9.678;2023-04-06T00:52:17;15.75;;;8.48;;
29902;SDS011;30288;50.514;9.678;2023-04-06T00:54:26;17.38;;;8.32;;
29902;SDS011;30288;50.514;9.678;2023-04-06T00:56:33;15.38;;;8.07;;
29902;SDS011;30288;50.514;9.678;2023-04-06T00:58:39;14.13;;;7.60;;
29902;SDS011;30288;50.514;9.678;2023-04-06T01:00:45;14.80;;;7.47;;
29902;SDS011;30288;50.514;9.678;2023-04-06T01:02:53;17.73;;;7.65;;
29902;SDS011;30288;50.514;9.678;2023-04-06T01:07:21;14.60;;;7.15;;
29902;SDS011;30288;50.514;9.678;2023-04-06T01:09:41;13.73;;;7.97;;
29902;SDS011;30288;50.514;9.678;2023-04-06T01:11:53;16.65;;;7.72;;
29902;SDS011;30288;50.514;9.678;2023-04-06T01:14:03;18.25;;;8.30;;
29902;SDS011;30288;50.514;9.678;2023-04-06T01:16:23;15.25;;;8.15;;
29902;SDS011;30288;50.514;9.678;2023-04-06T01:18:52;18.15;;;8.00;;
29902;SDS011;30288;50.514;9.678;2023-04-06T01:21:03;18.10;;;8.93;;
29902;SDS011;30288;50.514;9.678;2023-04-06T01:23:13;15.20;;;8.85;;
29902;SDS011;30288;50.514;9.678;2023-04-06T01:25:20;15.00;;;7.65;;
29902;SDS011;30288;50.514;9.678;2023-04-06T01:27:40;18.02;;;8.68;;
29902;SDS011;30288;50.514;9.678;2023-04-06T01:29:45;20.05;;;8.90;;
29902;SDS011;30288;50.514;9.678;2023-04-06T01:32:01;18.23;;;8.73;;
29902;SDS011;30288;50.514;9.678;2023-04-06T01:34:13;16.90;;;8.48;;
29902;SDS011;30288;50.514;9.678;2023-04-06T01:36:19;17.35;;;8.68;;
29902;SDS011;30288;50.514;9.678;2023-04-06T01:38:35;18.75;;;9.43;;
29902;SDS011;30288;50.514;9.678;2023-04-06T01:40:41;18.55;;;9.43;;
29902;SDS011;30288;50.514;9.678;2023-04-06T01:42:46;17.25;;;9.15;;
29902;SDS011;30288;50.514;9.678;2023-04-06T01:45:00;17.45;;;9.20;;
29902;SDS011;30288;50.514;9.678;2023-04-06T01:47:05;17.13;;;9.13;;
29902;SDS011;30288;50.514;9.678;2023-04-06T01:49:11;16.25;;;9.02;;
29902;SDS011;30288;50.514;9.678;2023-04-06T01:51:21;15.77;;;8.07;;
29902;SDS011;30288;50.514;9.678;2023-04-06T01:53:30;13.88;;;7.85;;
29902;SDS011;30288;50.514;9.678;2023-04-06T01:55:42;14.35;;;7.72;;
29902;SDS011;30288;50.514;9.678;2023-04-06T01:58:00;15.55;;;7.80;;
29902;SDS011;30288;50.514;9.678;2023-04-06T02:00:10;14.05;;;7.45;;
29902;SDS011;30288;50.514;9.678;2023-04-06T02:02:24;19.67;;;9.00;;
29902;SDS011;30288;50.514;9.678;2023-04-06T02:04:34;14.70;;;8.38;;
29902;SDS011;30288;50.514;9.678;2023-04-06T02:06:46;18.20;;;9.00;;
29902;SDS011;30288;50.514;9.678;2023-04-06T02:08:56;15.38;;;8.13;;
29902;SDS011;30288;50.514;9.678;2023-04-06T02:11:03;18.08;;;9.10;;
29902;SDS011;30288;50.514;9.678;2023-04-06T02:13:17;17.50;;;8.93;;
29902;SDS011;30288;50.514;9.678;2023-04-06T02:15:26;18.95;;;9.43;;
29902;SDS011;30288;50.514;9.678;2023-04-06T02:17:32;16.58;;;9.90;;
29902;SDS011;30288;50.514;9.678;2023-04-06T02:19:38;18.75;;;8.52;;
29902;SDS011;30288;50.514;9.678;2023-04-06T02:21:43;18.85;;;8.75;;
29902;SDS011;30288;50.514;9.678;2023-04-06T02:23:49;14.93;;;7.70;;
29902;SDS011;30288;50.514;9.678;2023-04-06T02:25:54;17.30;;;8.93;;
29902;SDS011;30288;50.514;9.678;2023-04-06T02:28:02;19.30;;;8.73;;
29902;SDS011;30288;50.514;9.678;2023-04-06T02:30:08;19.92;;;8.70;;
29902;SDS011;30288;50.514;9.678;2023-04-06T02:32:15;14.73;;;8.25;;
29902;SDS011;30288;50.514;9.678;2023-04-06T02:34:21;17.10;;;8.32;;
29902;SDS011;30288;50.514;9.678;2023-04-06T02:36:27;18.42;;;8.93;;
29902;SDS011;30288;50.514;9.678;2023-04-06T02:38:32;17.27;;;8.48;;
29902;SDS011;30288;50.514;9.678;2023-04-06T02:40:38;17.45;;;9.13;;
29902;SDS011;30288;50.514;9.678;2023-04-06T02:42:54;16.55;;;8.57;;
29902;SDS011;30288;50.514;9.678;2023-04-06T02:45:07;17.23;;;8.65;;
29902;SDS011;30288;50.514;9.678;2023-04-06T02:47:17;16.08;;;7.88;;
29902;SDS011;30288;50.514;9.678;2023-04-06T02:49:24;16.83;;;8.88;;
29902;SDS011;30288;50.514;9.678;2023-04-06T02:51:32;17.50;;;8.13;;
29902;SDS011;30288;50.514;9.678;2023-04-06T02:53:51;15.68;;;8.48;;
29902;SDS011;30288;50.514;9.678;2023-04-06T02:55:57;19.60;;;9.65;;
29902;SDS011;30288;50.514;9.678;2023-04-06T02:58:14;17.88;;;9.70;;
29902;SDS011;30288;50.514;9.678;2023-04-06T03:00:27;16.90;;;9.05;;
29902;SDS011;30288;50.514;9.678;2023-04-06T03:02:32;19.42;;;9.50;;
29902;SDS011;30288;50.514;9.678;2023-04-06T03:04:42;26.58;;;9.93;;
29902;SDS011;30288;50.514;9.678;2023-04-06T03:06:57;18.17;;;9.43;;
29902;SDS011;30288;50.514;9.678;2023-04-06T03:09:10;16.23;;;8.90;;
29902;SDS011;30288;50.514;9.678;2023-04-06T03:11:17;18.38;;;9.55;;
29902;SDS011;30288;50.514;9.678;2023-04-06T03:13:25;16.77;;;9.48;;
29902;SDS011;30288;50.514;9.678;2023-04-06T03:15:34;19.23;;;10.27;;
29902;SDS011;30288;50.514;9.678;2023-04-06T03:17:47;20.00;;;9.82;;
29902;SDS011;30288;50.514;9.678;2023-04-06T03:20:11;21.67;;;9.80;;
29902;SDS011;30288;50.514;9.678;2023-04-06T03:22:16;18.52;;;9.60;;
29902;SDS011;30288;50.514;9.678;2023-04-06T03:24:22;20.00;;;9.07;;
29902;SDS011;30288;50.514;9.678;2023-04-06T03:26:27;21.98;;;10.27;;
29902;SDS011;30288;50.514;9.678;2023-04-06T03:28:38;18.60;;;9.80;;
29902;SDS011;30288;50.514;9.678;2023-04-06T03:30:45;18.45;;;9.40;;
29902;SDS011;30288;50.514;9.678;2023-04-06T03:32:57;20.95;;;10.32;;
29902;SDS011;30288;50.514;9.678;2023-04-06T03:35:07;16.73;;;9.23;;
29902;SDS011;30288;50.514;9.678;2023-04-06T03:37:13;20.60;;;9.88;;
29902;SDS011;30288;50.514;9.678;2023-04-06T03:39:24;18.30;;;9.93;;
29902;SDS011;30288;50.514;9.678;2023-04-06T03:41:30;18.50;;;8.43;;
29902;SDS011;30288;50.514;9.678;2023-04-06T03:43:55;19.83;;;9.25;;
29902;SDS011;30288;50.514;9.678;2023-04-06T03:46:03;24.65;;;9.00;;
29902;SDS011;30288;50.514;9.678;2023-04-06T03:48:08;16.15;;;8.52;;
29902;SDS011;30288;50.514;9.678;2023-04-06T03:50:14;19.27;;;8.50;;
29902;SDS011;30288;50.514;9.678;2023-04-06T03:52:19;22.02;;;9.55;;
29902;SDS011;30288;50.514;9.678;2023-04-06T03:54:26;17.88;;;9.50;;
29902;SDS011;30288;50.514;9.678;2023-04-06T03:56:31;19.20;;;9.27;;
29902;SDS011;30288;50.514;9.678;2023-04-06T03:58:36;19.67;;;8.68;;
29902;SDS011;30288;50.514;9.678;2023-04-06T04:00:41;18.17;;;8.77;;
29902;SDS011;30288;50.514;9.678;2023-04-06T04:02:49;18.02;;;8.95;;
29902;SDS011;30288;50.514;9.678;2023-04-06T04:04:55;16.20;;;8.20;;
29902;SDS011;30288;50.514;9.678;2023-04-06T04:07:00;17.75;;;9.50;;
29902;SDS011;30288;50.514;9.678;2023-04-06T04:09:05;18.52;;;9.55;;
29902;SDS011;30288;50.514;9.678;2023-04-06T04:11:10;21.40;;;9.88;;
29902;SDS011;30288;50.514;9.678;2023-04-06T04:13:19;26.33;;;11.23;;
29902;SDS011;30288;50.514;9.678;2023-04-06T04:15:25;24.30;;;11.40;;
29902;SDS011;30288;50.514;9.678;2023-04-06T04:17:30;21.98;;;10.80;;
29902;SDS011;30288;50.514;9.678;2023-04-06T04:19:38;24.17;;;10.45;;
29902;SDS011;30288;50.514;9.678;2023-04-06T04:21:44;24.40;;;11.43;;
29902;SDS011;30288;50.514;9.678;2023-04-06T04:23:55;20.90;;;10.60;;
29902;SDS011;30288;50.514;9.678;2023-04-06T04:26:00;24.52;;;10.45;;
29902;SDS011;30288;50.514;9.678;2023-04-06T04:28:05;23.75;;;11.35;;
29902;SDS011;30288;50.514;9.678;2023-04-06T04:30:12;24.27;;;12.07;;
29902;SDS011;30288;50.514;9.678;2023-04-06T04:32:18;30.42;;;13.32;;
29902;SDS011;30288;50.514;9.678;2023-04-06T04:34:23;28.15;;;12.85;;
29902;SDS011;30288;50.514;9.678;2023-04-06T04:36:32;24.65;;;11.23;;
29902;SDS011;30288;50.514;9.678;2023-04-06T04:38:41;22.08;;;10.77;;
29902;SDS011;30288;50.514;9.678;2023-04-06T04:40:47;22.50;;;11.75;;
29902;SDS011;30288;50.514;9.678;2023-04-06T04:42:52;20.80;;;10.65;;
29902;SDS011;30288;50.514;9.678;2023-04-06T04:45:03;18.23;;;9.77;;
29902;SDS011;30288;50.514;9.678;2023-04-06T04:47:12;18.23;;;9.52;;
29902;SDS011;30288;50.514;9.678;2023-04-06T04:49:20;19.52;;;9.82;;
29902;SDS011;30288;50.514;9.678;2023-04-06T04:51:26;20.00;;;9.02;;
29902;SDS011;30288;50.514;9.678;2023-04-06T04:53:49;21.60;;;9.65;;
29902;SDS011;30288;50.514;9.678;2023-04-06T04:55:58;21.77;;;10.03;;
29902;SDS011;30288;50.514;9.678;2023-04-06T04:58:04;23.40;;;10.93;;
29902;SDS011;30288;50.514;9.678;2023-04-06T05:00:21;18.73;;;9.40;;
29902;SDS011;30288;50.514;9.678;2023-04-06T05:02:31;18.38;;;8.93;;
29902;SDS011;30288;50.514;9.678;2023-04-06T05:05:04;19.02;;;9.50;;
29902;SDS011;30288;50.514;9.678;2023-04-06T05:07:10;18.25;;;9.38;;
29902;SDS011;30288;50.514;9.678;2023-04-06T05:09:20;20.85;;;9.57;;
29902;SDS011;30288;50.514;9.678;2023-04-06T05:11:25;19.48;;;9.43;;
29902;SDS011;30288;50.514;9.678;2023-04-06T05:13:34;24.25;;;10.43;;
29902;SDS011;30288;50.514;9.678;2023-04-06T05:15:46;20.75;;;9.52;;
29902;SDS011;30288;50.514;9.678;2023-04-06T05:18:06;24.60;;;10.95;;
29902;SDS011;30288;50.514;9.678;2023-04-06T05:20:13;23.20;;;10.23;;
29902;SDS011;30288;50.514;9.678;2023-04-06T05:22:24;21.48;;;10.75;;
29902;SDS011;30288;50.514;9.678;2023-04-06T05:24:43;22.60;;;9.60;;
29902;SDS011;30288;50.514;9.678;2023-04-06T05:26:49;18.88;;;9.23;;
29902;SDS011;30288;50.514;9.678;2023-04-06T05:28:58;24.15;;;10.20;;
29902;SDS011;30288;50.514;9.678;2023-04-06T05:31:07;26.73;;;10.45;;
29902;SDS011;30288;50.514;9.678;2023-04-06T05:33:20;31.10;;;10.15;;
29902;SDS011;30288;50.514;9.678;2023-04-06T05:35:36;22.15;;;10.73;;
29902;SDS011;30288;50.514;9.678;2023-04-06T05:37:46;28.83;;;12.35;;
29902;SDS011;30288;50.514;9.678;2023-04-06T05:39:58;29.38;;;12.27;;
29902;SDS011;30288;50.514;9.678;2023-04-06T05:42:08;25.30;;;12.32;;
29902;SDS011;30288;50.514;9.678;2023-04-06T05:44:26;23.67;;;11.93;;
29902;SDS011;30288;50.514;9.678;2023-04-06T05:46:41;21.58;;;11.52;;
29902;SDS011;30288;50.514;9.678;2023-04-06T05:48:50;23.70;;;12.18;;
29902;SDS011;30288;50.514;9.678;2023-04-06T05:50:59;28.55;;;12.65;;
29902;SDS011;30288;50.514;9.678;2023-04-06T05:53:17;22.00;;;11.73;;
29902;SDS011;30288;50.514;9.678;2023-04-06T05:55:31;29.42;;;14.52;;
29902;SDS011;30288;50.514;9.678;2023-04-06T05:57:50;22.55;;;11.63;;
29902;SDS011;30288;50.514;9.678;2023-04-06T05:59:55;23.58;;;12.57;;
29902;SDS011;30288;50.514;9.678;2023-04-06T06:02:12;21.08;;;11.48;;
29902;SDS011;30288;50.514;9.678;2023-04-06T06:04:21;20.98;;;11.43;;
29902;SDS011;30288;50.514;9.678;2023-04-06T06:06:29;25.40;;;11.77;;
29902;SDS011;30288;50.514;9.678;2023-04-06T06:08:47;24.05;;;11.75;;
29902;SDS011;30288;50.514;9.678;2023-04-06T06:10:56;22.98;;;11.75;;
29902;SDS011;30288;50.514;9.678;2023-04-06T06:13:02;26.35;;;12.63;;
29902;SDS011;30288;50.514;9.678;2023-04-06T06:15:09;24.73;;;12.30;;
29902;SDS011;30288;50.514;9.678;2023-04-06T06:17:19;22.42;;;12.35;;
29902;SDS011;30288;50.514;9.678;2023-04-06T06:19:25;27.15;;;12.70;;
29902;SDS011;30288;50.514;9.678;2023-04-06T06:21:34;23.08;;;12.82;;
29902;SDS011;30288;50.514;9.678;2023-04-06T06:23:41;26.90;;;12.73;;
29902;SDS011;30288;50.514;9.678;2023-04-06T06:25:51;22.88;;;12.38;;
29902;SDS011;30288;50.514;9.678;2023-04-06T06:28:02;26.48;;;12.60;;
29902;SDS011;30288;50.514;9.678;2023-04-06T06:30:09;23.38;;;13.20;;
29902;SDS011;30288;50.514;9.678;2023-04-06T06:32:17;25.65;;;12.07;;
29902;SDS011;30288;50.514;9.678;2023-04-06T06:34:25;29.23;;;13.23;;
29902;SDS011;30288;50.514;9.678;2023-04-06T06:36:34;24.58;;;13.65;;
29902;SDS011;30288;50.514;9.678;2023-04-06T06:38:42;23.95;;;13.45;;
29902;SDS011;30288;50.514;9.678;2023-04-06T06:40:50;25.45;;;13.07;;
29902;SDS011;30288;50.514;9.678;2023-04-06T06:42:59;28.10;;;14.45;;
29902;SDS011;30288;50.514;9.678;2023-04-06T06:45:11;26.58;;;14.52;;
29902;SDS011;30288;50.514;9.678;2023-04-06T06:47:16;28.25;;;14.57;;
29902;SDS011;30288;50.514;9.678;2023-04-06T06:49:21;27.30;;;15.52;;
29902;SDS011;30288;50.514;9.678;2023-04-06T06:51:27;29.85;;;15.00;;
29902;SDS011;30288;50.514;9.678;2023-04-06T06:53:32;24.70;;;14.57;;
29902;SDS011;30288;50.514;9.678;2023-04-06T06:55:38;24.23;;;14.20;;
29902;SDS011;30288;50.514;9.678;2023-04-06T06:57:45;29.58;;;14.75;;
29902;SDS011;30288;50.514;9.678;2023-04-06T06:59:51;28.60;;;14.32;;
29902;SDS011;30288;50.514;9.678;2023-04-06T07:01:58;28.08;;;15.35;;
29902;SDS011;30288;50.514;9.678;2023-04-06T07:04:04;24.02;;;13.77;;
29902;SDS011;30288;50.514;9.678;2023-04-06T07:06:10;27.05;;;14.15;;
29902;SDS011;30288;50.514;9.678;2023-04-06T07:08:16;25.60;;;14.43;;
29902;SDS011;30288;50.514;9.678;2023-04-06T07:10:21;23.08;;;14.57;;
29902;SDS011;30288;50.514;9.678;2023-04-06T07:12:27;22.85;;;13.43;;
29902;SDS011;30288;50.514;9.678;2023-04-06T07:14:34;25.20;;;14.00;;
29902;SDS011;30288;50.514;9.678;2023-04-06T07:16:40;24.13;;;14.15;;
29902;SDS011;30288;50.514;9.678;2023-04-06T07:18:49;22.95;;;13.07;;
29902;SDS011;30288;50.514;9.678;2023-04-06T07:20:55;24.38;;;13.85;;
29902;SDS011;30288;50.514;9.678;2023-04-06T07:23:00;26.42;;;13.57;;
29902;SDS011;30288;50.514;9.678;2023-04-06T07:25:06;27.75;;;14.25;;
29902;SDS011;30288;50.514;9.678;2023-04-06T07:27:15;24.58;;;13.65;;
29902;SDS011;30288;50.514;9.678;2023-04-06T07:29:21;26.23;;;13.73;;
29902;SDS011;30288;50.514;9.678;2023-04-06T07:31:27;22.83;;;14.38;;
29902;SDS011;30288;50.514;9.678;2023-04-06T07:33:34;23.30;;;13.65;;
29902;SDS011;30288;50.514;9.678;2023-04-06T07:35:41;20.05;;;12.20;;
29902;SDS011;30288;50.514;9.678;2023-04-06T07:37:47;22.13;;;12.05;;
29902;SDS011;30288;50.514;9.678;2023-04-06T07:39:53;26.33;;;12.32;;
29902;SDS011;30288;50.514;9.678;2023-04-06T07:41:58;21.48;;;12.77;;
29902;SDS011;30288;50.514;9.678;2023-04-06T07:44:03;22.40;;;11.95;;
29902;SDS011;30288;50.514;9.678;2023-04-06T07:46:09;24.17;;;12.70;;
29902;SDS011;30288;50.514;9.678;2023-04-06T07:48:14;21.77;;;12.48;;
29902;SDS011;30288;50.514;9.678;2023-04-06T07:50:20;21.17;;;12.93;;
29902;SDS011;30288;50.514;9.678;2023-04-06T07:52:29;21.35;;;11.15;;
29902;SDS011;30288;50.514;9.678;2023-04-06T07:54:37;18.30;;;10.85;;
29902;SDS011;30288;50.514;9.678;2023-04-06T07:56:42;19.95;;;10.88;;
29902;SDS011;30288;50.514;9.678;2023-04-06T07:58:47;17.48;;;9.55;;
29902;SDS011;30288;50.514;9.678;2023-04-06T08:00:55;16.70;;;9.75;;
29902;SDS011;30288;50.514;9.678;2023-04-06T08:03:01;17.38;;;9.93;;
29902;SDS011;30288;50.514;9.678;2023-04-06T08:05:07;20.50;;;10.32;;
29902;SDS011;30288;50.514;9.678;2023-04-06T08:07:13;20.75;;;10.40;;
29902;SDS011;30288;50.514;9.678;2023-04-06T08:09:22;21.80;;;10.35;;
29902;SDS011;30288;50.514;9.678;2023-04-06T08:11:28;15.68;;;10.27;;
29902;SDS011;30288;50.514;9.678;2023-04-06T08:13:33;15.95;;;10.43;;
29902;SDS011;30288;50.514;9.678;2023-04-06T08:15:39;17.80;;;9.15;;
29902;SDS011;30288;50.514;9.678;2023-04-06T08:17:44;22.08;;;9.55;;
29902;SDS011;30288;50.514;9.678;2023-04-06T08:19:50;15.13;;;8.60;;
29902;SDS011;30288;50.514;9.678;2023-04-06T08:21:55;16.15;;;9.20;;
29902;SDS011;30288;50.514;9.678;2023-04-06T08:24:00;15.52;;;9.25;;
29902;SDS011;30288;50.514;9.678;2023-04-06T08:26:09;15.90;;;8.30;;
29902;SDS011;30288;50.514;9.678;2023-04-06T08:28:14;14.05;;;8.07;;
29902;SDS011;30288;50.514;9.678;2023-04-06T08:30:19;17.80;;;8.27;;
29902;SDS011;30288;50.514;9.678;2023-04-06T08:32:24;15.35;;;8.38;;
29902;SDS011;30288;50.514;9.678;2023-04-06T08:34:30;13.40;;;7.80;;
29902;SDS011;30288;50.514;9.678;2023-04-06T08:36:36;16.05;;;8.27;;
29902;SDS011;30288;50.514;9.678;2023-04-06T08:38:41;16.30;;;8.27;;
29902;SDS011;30288;50.514;9.678;2023-04-06T08:40:46;12.32;;;8.18;;
29902;SDS011;30288;50.514;9.678;2023-04-06T08:42:56;13.20;;;7.85;;
29902;SDS011;30288;50.514;9.678;2023-04-06T08:45:09;15.55;;;7.68;;
29902;SDS011;30288;50.514;9.678;2023-04-06T08:47:15;15.25;;;8.20;;
29902;SDS011;30288;50.514;9.678;2023-04-06T08:49:25;13.32;;;8.10;;
29902;SDS011;30288;50.514;9.678;2023-04-06T08:51:30;14.18;;;8.60;;
29902;SDS011;30288;50.514;9.678;2023-04-06T08:53:35;17.17;;;8.30;;
29902;SDS011;30288;50.514;9.678;2023-04-06T08:55:41;14.40;;;8.43;;
29902;SDS011;30288;50.514;9.678;2023-04-06T08:57:48;12.10;;;7.25;;
29902;SDS011;30288;50.514;9.678;2023-04-06T08:59:58;13.25;;;7.88;;
29902;SDS011;30288;50.514;9.678;2023-04-06T09:02:05;11.75;;;8.13;;
29902;SDS011;30288;50.514;9.678;2023-04-06T09:04:15;16.27;;;8.85;;
29902;SDS011;30288;50.514;9.678;2023-04-06T09:06:21;17.90;;;8.80;;
29902;SDS011;30288;50.514;9.678;2023-04-06T09:08:27;11.60;;;7.65;;
29902;SDS011;30288;50.514;9.678;2023-04-06T09:10:33;13.68;;;8.35;;
29902;SDS011;30288;50.514;9.678;2023-04-06T09:12:38;12.75;;;7.72;;
29902;SDS011;30288;50.514;9.678;2023-04-06T09:14:43;19.63;;;7.78;;
29902;SDS011;30288;50.514;9.678;2023-04-06T09:16:51;15.63;;;7.88;;
29902;SDS011;30288;50.514;9.678;2023-04-06T09:19:03;12.93;;;7.88;;
29902;SDS011;30288;50.514;9.678;2023-04-06T09:21:09;13.45;;;7.97;;
29902;SDS011;30288;50.514;9.678;2023-04-06T09:23:18;13.45;;;7.30;;
29902;SDS011;30288;50.514;9.678;2023-04-06T09:25:24;12.88;;;7.90;;
29902;SDS011;30288;50.514;9.678;2023-04-06T09:27:31;11.55;;;6.75;;
29902;SDS011;30288;50.514;9.678;2023-04-06T09:29:39;11.93;;;6.65;;
29902;SDS011;30288;50.514;9.678;2023-04-06T09:31:45;10.90;;;6.85;;
29902;SDS011;30288;50.514;9.678;2023-04-06T09:33:53;12.93;;;6.97;;
29902;SDS011;30288;50.514;9.678;2023-04-06T09:35:59;12.10;;;6.85;;
29902;SDS011;30288;50.514;9.678;2023-04-06T09:38:10;11.57;;;7.75;;
29902;SDS011;30288;50.514;9.678;2023-04-06T09:40:16;12.25;;;7.35;;
29902;SDS011;30288;50.514;9.678;2023-04-06T09:42:23;13.15;;;7.88;;
29902;SDS011;30288;50.514;9.678;2023-04-06T09:44:29;13.18;;;7.28;;
29902;SDS011;30288;50.514;9.678;2023-04-06T09:46:35;12.60;;;6.88;;
29902;SDS011;30288;50.514;9.678;2023-04-06T09:49:02;12.07;;;6.93;;
29902;SDS011;30288;50.514;9.678;2023-04-06T09:51:08;13.13;;;7.10;;
29902;SDS011;30288;50.514;9.678;2023-04-06T09:53:19;15.70;;;6.97;;
29902;SDS011;30288;50.514;9.678;2023-04-06T09:55:26;13.30;;;7.65;;
29902;SDS011;30288;50.514;9.678;2023-04-06T09:57:37;11.23;;;7.07;;
29902;SDS011;30288;50.514;9.678;2023-04-06T09:59:56;14.50;;;7.63;;
29902;SDS011;30288;50.514;9.678;2023-04-06T10:02:18;14.27;;;8.13;;
29902;SDS011;30288;50.514;9.678;2023-04-06T10:04:36;11.57;;;6.68;;
29902;SDS011;30288;50.514;9.678;2023-04-06T10:06:47;14.23;;;7.80;;
29902;SDS011;30288;50.514;9.678;2023-04-06T10:08:55;14.48;;;8.23;;
29902;SDS011;30288;50.514;9.678;2023-04-06T10:11:01;13.45;;;7.03;;
29902;SDS011;30288;50.514;9.678;2023-04-06T10:13:07;14.25;;;8.07;;
29902;SDS011;30288;50.514;9.678;2023-04-06T10:15:15;13.45;;;7.97;;
29902;SDS011;30288;50.514;9.678;2023-04-06T10:17:23;16.00;;;7.40;;
29902;SDS011;30288;50.514;9.678;2023-04-06T10:19:36;15.10;;;8.05;;
29902;SDS011;30288;50.514;9.678;2023-04-06T10:21:54;12.27;;;7.60;;
29902;SDS011;30288;50.514;9.678;2023-04-06T10:24:06;13.07;;;7.90;;
29902;SDS011;30288;50.514;9.678;2023-04-06T10:26:15;13.45;;;7.72;;
29902;SDS011;30288;50.514;9.678;2023-04-06T10:28:24;15.02;;;7.57;;
29902;SDS011;30288;50.514;9.678;2023-04-06T10:30:36;12.65;;;7.75;;
29902;SDS011;30288;50.514;9.678;2023-04-06T10:32:47;12.13;;;7.35;;
29902;SDS011;30288;50.514;9.678;2023-04-06T10:35:04;12.18;;;7.60;;
29902;SDS011;30288;50.514;9.678;2023-04-06T10:37:12;13.52;;;7.50;;
29902;SDS011;30288;50.514;9.678;2023-04-06T10:39:24;12.95;;;7.50;;
29902;SDS011;30288;50.514;9.678;2023-04-06T10:41:33;12.32;;;7.28;;
29902;SDS011;30288;50.514;9.678;2023-04-06T10:43:40;13.02;;;7.90;;
29902;SDS011;30288;50.514;9.678;2023-04-06T10:45:54;12.27;;;7.68;;
29902;SDS011;30288;50.514;9.678;2023-04-06T10:48:12;18.90;;;7.65;;
29902;SDS011;30288;50.514;9.678;2023-04-06T10:50:20;13.85;;;7.72;;
29902;SDS011;30288;50.514;9.678;2023-04-06T10:52:26;12.55;;;7.93;;
29902;SDS011;30288;50.514;9.678;2023-04-06T10:54:32;14.02;;;7.65;;
29902;SDS011;30288;50.514;9.678;2023-04-06T10:56:38;12.90;;;8.13;;
29902;SDS011;30288;50.514;9.678;2023-04-06T10:58:45;14.20;;;7.78;;
29902;SDS011;30288;50.514;9.678;2023-04-06T11:00:52;15.20;;;7.80;;
29902;SDS011;30288;50.514;9.678;2023-04-06T11:03:02;14.90;;;7.95;;
29902;SDS011;30288;50.514;9.678;2023-04-06T11:05:07;12.20;;;6.60;;
29902;SDS011;30288;50.514;9.678;2023-04-06T11:07:24;14.02;;;7.65;;
29902;SDS011;30288;50.514;9.678;2023-04-06T11:09:31;12.50;;;7.63;;
29902;SDS011;30288;50.514;9.678;2023-04-06T11:11:38;13.30;;;7.38;;
29902;SDS011;30288;50.514;9.678;2023-04-06T11:13:44;13.25;;;7.75;;
29902;SDS011;30288;50.514;9.678;2023-04-06T11:15:51;12.05;;;7.03;;
29902;SDS011;30288;50.514;9.678;2023-04-06T11:17:56;12.15;;;7.43;;
29902;SDS011;30288;50.514;9.678;2023-04-06T11:20:02;13.48;;;7.07;;
29902;SDS011;30288;50.514;9.678;2023-04-06T11:22:14;10.40;;;7.37;;
29902;SDS011;30288;50.514;9.678;2023-04-06T11:24:22;16.05;;;7.28;;
29902;SDS011;30288;50.514;9.678;2023-04-06T11:26:28;12.65;;;7.50;;
29902;SDS011;30288;50.514;9.678;2023-04-06T11:28:33;14.38;;;7.13;;
29902;SDS011;30288;50.514;9.678;2023-04-06T11:30:39;11.10;;;7.18;;
29902;SDS011;30288;50.514;9.678;2023-04-06T11:32:45;12.90;;;7.63;;
29902;SDS011;30288;50.514;9.678;2023-04-06T11:34:50;12.18;;;7.70;;
29902;SDS011;30288;50.514;9.678;2023-04-06T11:36:56;11.90;;;7.45;;
29902;SDS011;30288;50.514;9.678;2023-04-06T11:39:04;13.98;;;7.28;;
29902;SDS011;30288;50.514;9.678;2023-04-06T11:41:11;13.50;;;7.13;;
29902;SDS011;30288;50.514;9.678;2023-04-06T11:43:17;12.00;;;7.10;;
29902;SDS011;30288;50.514;9.678;2023-04-06T11:45:22;12.43;;;7.45;;
29902;SDS011;30288;50.514;9.678;2023-04-06T11:47:28;14.38;;;7.78;;
29902;SDS011;30288;50.514;9.678;2023-04-06T11:49:36;13.48;;;7.70;;
29902;SDS011;30288;50.514;9.678;2023-04-06T11:51:42;13.18;;;7.22;;
29902;SDS011;30288;50.514;9.678;2023-04-06T11:53:47;11.70;;;7.07;;
29902;SDS011;30288;50.514;9.678;2023-04-06T11:55:53;17.25;;;7.88;;
29902;SDS011;30288;50.514;9.678;2023-04-06T11:58:01;15.30;;;7.93;;
29902;SDS011;30288;50.514;9.678;2023-04-06T12:00:07;12.38;;;6.97;;
29902;SDS011;30288;50.514;9.678;2023-04-06T12:02:14;10.52;;;7.10;;
29902;SDS011;30288;50.514;9.678;2023-04-06T12:04:19;15.23;;;7.57;;
29902;SDS011;30288;50.514;9.678;2023-04-06T12:06:24;13.27;;;7.15;;
29902;SDS011;30288;50.514;9.678;2023-04-06T12:08:29;12.00;;;6.32;;
29902;SDS011;30288;50.514;9.678;2023-04-06T12:10:35;10.93;;;6.53;;
29902;SDS011;30288;50.514;9.678;2023-04-06T12:12:40;10.40;;;6.65;;
29902;SDS011;30288;50.514;9.678;2023-04-06T12:14:48;13.10;;;6.95;;
29902;SDS011;30288;50.514;9.678;2023-04-06T12:16:53;12.27;;;6.95;;
29902;SDS011;30288;50.514;9.678;2023-04-06T12:18:58;14.73;;;7.20;;
29902;SDS011;30288;50.514;9.678;2023-04-06T12:21:03;14.32;;;6.93;;
29902;SDS011;30288;50.514;9.678;2023-04-06T12:23:09;12.85;;;6.53;;
29902;SDS011;30288;50.514;9.678;2023-04-06T12:25:14;11.88;;;6.80;;
29902;SDS011;30288;50.514;9.678;2023-04-06T12:27:19;12.00;;;7.07;;
29902;SDS011;30288;50.514;9.678;2023-04-06T12:29:24;10.43;;;6.00;;
29902;SDS011;30288;50.514;9.678;2023-04-06T12:31:32;11.27;;;6.18;;
29902;SDS011;30288;50.514;9.678;2023-04-06T12:33:40;17.40;;;6.57;;
29902;SDS011;30288;50.514;9.678;2023-04-06T12:35:46;11.95;;;5.88;;
29902;SDS011;30288;50.514;9.678;2023-04-06T12:37:51;10.82;;;6.00;;
29902;SDS011;30288;50.514;9.678;2023-04-06T12:39:56;12.60;;;6.55;;
29902;SDS011;30288;50.514;9.678;2023-04-06T12:42:01;10.32;;;6.50;;